General Piran, Argentina
Current Conditions -  °F | °C
As of 5:00 PM on Wednesday 28 Jan 2015 (Local Time) from SAZM Reporting Station
Broken Clouds Broken Clouds  
Wind Chill: 21°   Ceiling: 20000
Heat Index: 21°   Visibility: 6mi
Dew Point: 10°   Wind: 9mph
Humidity: 49%   Direction: 200°SSW
Pressure: 29.97"   Gusts: NA
Location:  37.28°S, 57.79°W
Report Text: SAZM 282000Z 20008KT 9999 FEW016 BKN20021/10 Q1015
Loading
Personal Weather Stations






























Interactive Weather Map New forecast layout! Learn more

10-Day Weather Forecast

Advertisements
Track Severe Weather on mobile